Time;durP1;ratioP1;P1;durP2;ratioP2;P2;SDS_P1;SDS_P2;PMS_P1;PMS_P2;Temp;Humidity;BMP_temperature;BMP_pressure;BME280_temperature;BME280_humidity;BME280_pressure;Samples;Min_cycle;Max_cycle;Signal;HPM_P1;HPM_P2
2021/01/01 00:00:12;;;;;;;30.17;13.50;;;;;;;3.99;82.71;100284.50;4964500;28;20199;-75
2021/01/01 00:02:39;;;;;;;47.27;18.13;;;;;;;3.88;83.05;100283.28;4965941;28;20203;-77
2021/01/01 00:05:08;;;;;;;50.80;18.33;;;;;;;3.74;83.18;100265.38;4964966;28;20197;-75
2021/01/01 00:07:35;;;;;;;50.73;16.73;;;;;;;3.84;83.07;100277.25;4951630;28;20260;-75
2021/01/01 00:10:04;;;;;;;53.97;12.50;;;;;;;3.83;83.07;100280.00;4968397;28;20200;-75
2021/01/01 00:12:32;;;;;;;62.40;14.17;;;;;;;3.87;82.96;100282.44;4970491;28;20200;-75
2021/01/01 00:14:59;;;;;;;23.87;6.37;;;;;;;3.79;83.29;100268.66;4968004;28;20196;-76
2021/01/01 00:17:26;;;;;;;20.63;7.07;;;;;;;3.85;82.70;100286.09;4966136;28;20197;-75
2021/01/01 00:19:53;;;;;;;24.57;7.83;;;;;;;3.85;82.69;100294.91;4966808;28;20231;-76
2021/01/01 00:22:20;;;;;;;23.50;5.53;;;;;;;3.76;82.91;100271.47;4969354;28;20193;-79
2021/01/01 00:24:48;;;;;;;22.97;5.93;;;;;;;3.84;83.17;100292.34;4970001;28;20211;-76
2021/01/01 00:27:15;;;;;;;11.77;4.60;;;;;;;3.79;82.66;100295.22;4967707;28;20771;-76
2021/01/01 00:29:43;;;;;;;8.60;3.77;;;;;;;3.74;82.62;100297.22;4967429;28;20189;-77
2021/01/01 00:32:10;;;;;;;6.53;3.37;;;;;;;3.76;82.91;100295.38;4965529;28;20206;-76
2021/01/01 00:34:37;;;;;;;43.50;23.20;;;;;;;3.74;82.93;100302.53;4966535;28;20197;-76
2021/01/01 00:37:04;;;;;;;11.30;5.57;;;;;;;3.64;82.43;100293.25;4962694;28;20206;-74
2021/01/01 00:39:32;;;;;;;22.77;8.53;;;;;;;3.58;82.89;100288.25;4966423;28;20196;-74
2021/01/01 00:41:59;;;;;;;12.53;6.30;;;;;;;3.61;83.29;100304.88;4967123;28;20193;-72
2021/01/01 00:44:26;;;;;;;16.87;7.67;;;;;;;3.66;83.13;100302.88;4967788;28;20202;-73
2021/01/01 00:46:54;;;;;;;12.57;5.60;;;;;;;3.63;82.91;100300.38;4969170;28;20219;-73
2021/01/01 00:49:21;;;;;;;11.87;5.60;;;;;;;3.64;82.90;100307.41;4968109;28;20208;-73
2021/01/01 00:51:48;;;;;;;13.70;6.90;;;;;;;3.54;82.95;100292.84;4969129;28;20230;-73
2021/01/01 00:54:16;;;;;;;15.17;8.00;;;;;;;3.63;82.87;100308.31;4966617;28;20254;-73
2021/01/01 00:56:46;;;;;;;12.73;6.87;;;;;;;3.60;82.86;100307.63;4957813;28;20229;-74
2021/01/01 00:59:13;;;;;;;15.03;6.53;;;;;;;3.21;83.08;100242.19;4967023;28;20887;-73
2021/01/01 01:01:40;;;;;;;14.17;7.90;;;;;;;3.43;82.68;100266.81;4968554;28;21037;-73
2021/01/01 01:04:08;;;;;;;13.33;5.73;;;;;;;3.69;82.79;100315.19;4941192;28;20203;-73
2021/01/01 01:06:36;;;;;;;11.97;5.03;;;;;;;3.66;82.68;100321.47;4965292;28;20220;-73
2021/01/01 01:09:03;;;;;;;14.73;7.40;;;;;;;3.72;82.85;100320.34;4965549;28;20196;-74
2021/01/01 01:11:31;;;;;;;12.03;5.80;;;;;;;3.52;82.69;100304.47;4938421;28;20685;-72
2021/01/01 01:13:59;;;;;;;8.47;4.70;;;;;;;3.36;82.63;100259.16;4967736;28;20197;-74
2021/01/01 01:16:29;;;;;;;12.33;5.67;;;;;;;3.65;82.55;100317.09;4959559;28;20193;-73
2021/01/01 01:18:57;;;;;;;8.77;4.67;;;;;;;3.57;82.73;100321.03;4951979;28;20197;-73
2021/01/01 01:21:25;;;;;;;8.90;4.10;;;;;;;3.61;82.95;100322.59;4966568;28;21762;-73
2021/01/01 01:23:53;;;;;;;10.63;4.07;;;;;;;3.56;82.67;100317.50;4967974;28;20204;-74
2021/01/01 01:26:20;;;;;;;9.97;4.83;;;;;;;3.57;82.58;100327.19;4949440;28;20223;-73
2021/01/01 01:28:48;;;;;;;6.47;3.47;;;;;;;3.56;82.73;100319.31;4961708;28;20193;-74
2021/01/01 01:31:17;;;;;;;6.60;3.60;;;;;;;3.56;82.54;100327.28;4972608;28;20195;-73
2021/01/01 01:33:44;;;;;;;6.17;3.67;;;;;;;3.57;82.62;100329.00;4963428;28;20204;-73
2021/01/01 01:36:12;;;;;;;9.93;4.77;;;;;;;3.56;82.76;100322.81;4969201;28;20275;-73
2021/01/01 01:38:40;;;;;;;11.13;3.53;;;;;;;3.57;82.58;100326.34;4971277;28;20208;-73
2021/01/01 01:41:07;;;;;;;8.87;3.30;;;;;;;3.47;82.45;100322.41;4944623;28;20197;-72
2021/01/01 01:43:35;;;;;;;6.07;3.07;;;;;;;3.36;82.47;100312.25;4973152;28;20217;-72
2021/01/01 01:46:02;;;;;;;5.63;3.67;;;;;;;3.41;82.50;100324.41;4972706;28;20212;-72
2021/01/01 01:48:32;;;;;;;10.10;3.30;;;;;;;3.41;82.58;100321.75;4971995;28;20196;-72
2021/01/01 01:51:05;;;;;;;6.47;3.20;;;;;;;3.47;82.79;100330.34;4970473;28;20628;-73
2021/01/01 01:53:34;;;;;;;7.37;3.60;;;;;;;3.45;82.40;100327.78;4971694;28;20819;-73
2021/01/01 01:56:02;;;;;;;9.73;3.10;;;;;;;3.09;82.64;100282.53;4972494;28;20540;-72
2021/01/01 01:58:30;;;;;;;7.67;3.20;;;;;;;3.41;82.59;100342.13;4974870;28;20200;-73
2021/01/01 02:01:02;;;;;;;8.00;3.03;;;;;;;3.41;82.55;100342.97;4969327;28;20319;-73
2021/01/01 02:03:31;;;;;;;5.97;3.40;;;;;;;3.37;82.73;100341.41;4971083;28;20205;-73
2021/01/01 02:05:59;;;;;;;8.23;3.63;;;;;;;3.34;82.81;100328.22;4970846;28;20224;-74
2021/01/01 02:11:41;;;;;;;6.97;3.30;;;;;;;3.06;82.31;100277.34;4909600;29;20238;-72
2021/01/01 02:14:10;;;;;;;12.37;4.23;;;;;;;3.36;82.72;100357.34;4912449;29;20192;-74
2021/01/01 02:16:37;;;;;;;8.43;3.40;;;;;;;3.35;82.74;100335.25;4913034;29;20609;-72
2021/01/01 02:19:04;;;;;;;8.10;3.47;;;;;;;3.48;82.77;100353.31;4913131;29;20212;-73
2021/01/01 02:21:32;;;;;;;14.00;6.13;;;;;;;3.49;82.84;100349.72;4911723;29;20326;-73
2021/01/01 02:24:00;;;;;;;573.50;222.67;;;;;;;3.53;83.04;100349.50;4927872;29;20196;-73
2021/01/01 02:26:27;;;;;;;304.23;120.33;;;;;;;3.56;83.01;100346.72;4911628;29;20245;-71
2021/01/01 02:28:54;;;;;;;33.83;11.67;;;;;;;3.51;83.26;100347.88;4911803;29;20199;-72
2021/01/01 02:31:21;;;;;;;14.27;6.83;;;;;;;3.45;84.08;100340.19;4927889;29;20209;-73
2021/01/01 02:33:49;;;;;;;10.60;3.53;;;;;;;3.53;84.88;100356.63;4912506;29;20207;-72
2021/01/01 02:36:16;;;;;;;6.60;4.10;;;;;;;3.64;83.81;100364.94;4927067;29;20199;-72
2021/01/01 02:38:43;;;;;;;6.20;3.73;;;;;;;3.57;83.68;100342.28;4912613;29;20204;-71
2021/01/01 02:41:11;;;;;;;5.67;3.37;;;;;;;3.42;83.46;100334.09;4912854;29;20198;-72
2021/01/01 02:43:38;;;;;;;6.70;3.60;;;;;;;3.62;83.41;100358.84;4928215;29;20204;-72
2021/01/01 02:46:05;;;;;;;5.67;3.30;;;;;;;3.50;83.14;100360.28;4913527;29;20257;-72
2021/01/01 02:48:32;;;;;;;6.67;3.57;;;;;;;3.58;83.13;100358.13;4912200;29;20191;-72
2021/01/01 02:51:00;;;;;;;7.07;3.33;;;;;;;3.58;83.04;100357.25;4910544;29;20202;-72
2021/01/01 02:53:28;;;;;;;5.23;2.97;;;;;;;3.58;82.99;100357.25;4912672;29;20206;-71
2021/01/01 02:55:55;;;;;;;4.80;2.67;;;;;;;3.62;82.95;100361.50;4912658;29;20272;-72
2021/01/01 02:58:23;;;;;;;4.87;2.53;;;;;;;3.65;82.81;100361.34;4913658;29;20199;-71
2021/01/01 03:00:51;;;;;;;3.53;2.53;;;;;;;3.45;83.21;100327.78;4913520;29;20601;-72
2021/01/01 03:03:18;;;;;;;6.43;3.23;;;;;;;3.68;83.07;100364.75;4913581;29;20205;-73
2021/01/01 03:05:46;;;;;;;6.23;3.60;;;;;;;3.65;82.94;100356.91;4912237;29;20194;-73
2021/01/01 03:08:13;;;;;;;4.37;2.80;;;;;;;3.58;83.06;100354.59;4914037;29;20738;-71
2021/01/01 03:10:40;;;;;;;7.57;5.10;;;;;;;3.59;83.06;100356.34;4924888;29;20248;-72
2021/01/01 03:13:07;;;;;;;5.93;3.03;;;;;;;3.68;83.22;100362.09;4933010;29;20202;-73
2021/01/01 03:15:35;;;;;;;7.97;3.50;;;;;;;3.73;83.18;100360.09;4933143;29;20198;-71
2021/01/01 03:18:03;;;;;;;5.50;3.00;;;;;;;3.74;83.09;100355.66;4933222;29;20205;-71
2021/01/01 03:20:30;;;;;;;6.13;2.93;;;;;;;3.71;83.10;100353.13;4931658;29;20214;-72
2021/01/01 03:22:57;;;;;;;4.53;2.43;;;;;;;3.64;82.88;100347.22;4930571;29;20205;-72
2021/01/01 03:25:24;;;;;;;2.70;2.10;;;;;;;3.65;82.75;100353.38;4930108;29;20218;-73
2021/01/01 03:27:51;;;;;;;5.10;2.53;;;;;;;3.66;82.84;100358.63;4932105;29;20228;-71
2021/01/01 03:30:19;;;;;;;4.30;2.80;;;;;;;3.60;82.56;100355.41;4932336;29;20201;-72
2021/01/01 03:32:47;;;;;;;5.90;3.00;;;;;;;3.52;82.59;100346.94;4932569;29;20209;-73
2021/01/01 03:35:15;;;;;;;9.67;3.03;;;;;;;3.50;82.88;100346.13;4928720;29;20199;-71
2021/01/01 03:37:42;;;;;;;5.60;2.93;;;;;;;3.55;82.83;100360.91;4931199;29;20202;-72
2021/01/01 03:40:10;;;;;;;7.73;3.07;;;;;;;3.46;82.98;100348.06;4931233;29;20659;-71
2021/01/01 03:42:37;;;;;;;5.03;2.93;;;;;;;3.51;82.61;100356.69;4931399;29;20210;-72
2021/01/01 03:45:10;;;;;;;3.27;2.40;;;;;;;3.46;82.76;100345.41;4932273;29;20289;-71
2021/01/01 03:47:38;;;;;;;6.63;3.07;;;;;;;3.56;82.88;100359.13;4931260;29;20215;-72
2021/01/01 03:50:08;;;;;;;5.60;2.90;;;;;;;3.50;82.98;100346.13;4932105;29;20205;-72
2021/01/01 03:52:35;;;;;;;5.10;2.90;;;;;;;2.98;82.85;100255.59;4931639;29;20198;-71
2021/01/01 03:55:03;;;;;;;6.20;3.17;;;;;;;3.59;82.93;100359.84;4929536;29;20201;-72
2021/01/01 03:57:31;;;;;;;5.13;2.40;;;;;;;3.51;82.99;100340.75;4931081;29;20561;-72
2021/01/01 03:59:58;;;;;;;9.00;2.87;;;;;;;3.57;82.93;100366.16;4931977;29;20213;-72
2021/01/01 04:02:25;;;;;;;7.27;3.50;;;;;;;3.53;82.88;100364.56;4931675;29;20205;-72
2021/01/01 04:04:52;;;;;;;4.70;3.20;;;;;;;3.51;83.04;100361.13;4931785;29;20285;-73
2021/01/01 04:07:20;;;;;;;1999.90;524.40;;;;;;;3.52;83.05;100360.19;4913638;29;20232;-71
2021/01/01 04:09:47;;;;;;;101.33;34.43;;;;;;;3.52;82.98;100352.25;4929106;29;20293;-72
2021/01/01 04:12:14;;;;;;;17.20;9.20;;;;;;;3.53;83.06;100357.47;4914094;29;20208;-72
2021/01/01 04:14:41;;;;;;;22.67;10.23;;;;;;;3.46;83.68;100347.22;4931517;29;20198;-72
2021/01/01 04:17:08;;;;;;;9.30;6.07;;;;;;;3.55;83.76;100357.41;4925671;29;20202;-72
2021/01/01 04:19:36;;;;;;;11.80;5.13;;;;;;;3.63;83.11;100365.88;4931072;29;20205;-72
2021/01/01 04:22:03;;;;;;;10.83;4.27;;;;;;;3.60;83.61;100352.75;4931464;29;20206;-72
2021/01/01 04:24:31;;;;;;;6.73;3.27;;;;;;;3.71;83.19;100363.75;4929017;29;20194;-72
2021/01/01 04:27:00;;;;;;;4.83;3.00;;;;;;;3.71;83.08;100361.09;4930222;29;20295;-72
2021/01/01 04:29:27;;;;;;;9.77;3.63;;;;;;;3.67;82.77;100364.81;4932992;29;20201;-73
2021/01/01 04:31:54;;;;;;;9.77;2.83;;;;;;;3.65;82.80;100372.84;4918521;29;20240;-72
2021/01/01 04:34:21;;;;;;;10.20;2.87;;;;;;;3.65;82.52;100369.31;4931498;29;20210;-71
2021/01/01 04:36:48;;;;;;;5.33;3.10;;;;;;;3.64;82.56;100370.25;4931400;29;20682;-72
2021/01/01 04:39:17;;;;;;;4.93;2.87;;;;;;;3.54;82.36;100369.81;4929205;29;20208;-71
2021/01/01 04:41:45;;;;;;;3.67;2.40;;;;;;;3.47;82.52;100356.91;4930178;29;20259;-72
2021/01/01 04:44:15;;;;;;;4.83;2.50;;;;;;;3.53;82.84;100373.41;4929952;29;20573;-72
2021/01/01 04:46:43;;;;;;;8.93;3.00;;;;;;;3.52;83.06;100376.13;4913786;29;20239;-72
2021/01/01 04:49:10;;;;;;;6.13;3.27;;;;;;;3.58;82.80;100381.16;4930902;29;20208;-71
2021/01/01 04:51:37;;;;;;;7.17;3.03;;;;;;;3.48;82.57;100359.47;4930005;29;20224;-72
2021/01/01 04:54:05;;;;;;;4.90;2.60;;;;;;;3.56;82.72;100378.56;4930370;29;20217;-72
2021/01/01 04:56:32;;;;;;;5.70;2.47;;;;;;;3.54;82.85;100380.44;4929360;29;20550;-71
2021/01/01 04:59:02;;;;;;;4.83;2.63;;;;;;;3.53;82.92;100377.84;4930886;29;20201;-72
2021/01/01 05:01:30;;;;;;;3.03;1.97;;;;;;;3.52;82.77;100381.44;4930597;29;20201;-72
2021/01/01 05:03:57;;;;;;;3.33;2.47;;;;;;;3.45;82.66;100380.00;4915961;29;20205;-72
2021/01/01 05:06:30;;;;;;;4.97;2.50;;;;;;;3.33;82.40;100371.63;4930285;29;20217;-72
2021/01/01 05:08:59;;;;;;;4.97;2.10;;;;;;;3.40;82.49;100383.72;4928842;29;20209;-71
2021/01/01 05:11:26;;;;;;;4.20;2.23;;;;;;;3.43;82.72;100380.94;4923667;29;20396;-72
2021/01/01 05:13:58;;;;;;;3.73;2.50;;;;;;;3.47;82.92;100378.13;4926471;29;20639;-72
2021/01/01 05:16:27;;;;;;;5.27;2.07;;;;;;;3.42;83.07;100373.91;4928831;29;20216;-72
2021/01/01 05:18:55;;;;;;;4.67;2.30;;;;;;;3.56;83.16;100385.66;4926276;29;20208;-71
2021/01/01 05:21:23;;;;;;;6.40;2.30;;;;;;;3.04;83.42;100298.63;4928457;29;20200;-71
2021/01/01 05:23:53;;;;;;;4.50;1.90;;;;;;;3.61;83.00;100383.66;4926984;29;20205;-72
2021/01/01 05:26:20;;;;;;;3.90;2.10;;;;;;;3.62;83.18;100382.72;4929366;29;20205;-72
2021/01/01 05:29:02;;;;;;;7.77;2.37;;;;;;;3.67;83.18;100384.28;4916299;29;20210;-71
2021/01/01 05:31:32;;;;;;;2.13;1.83;;;;;;;3.68;83.33;100383.34;4930809;29;22375;-71
2021/01/01 05:34:02;;;;;;;4.73;2.20;;;;;;;3.59;83.18;100374.91;4928680;29;20209;-72
2021/01/01 05:36:32;;;;;;;3.63;2.50;;;;;;;3.60;83.02;100381.94;4930942;29;20186;-72
2021/01/01 05:39:02;;;;;;;3.43;2.03;;;;;;;3.62;83.08;100380.94;4910673;29;20205;-72
2021/01/01 05:41:31;;;;;;;6.27;2.30;;;;;;;3.58;82.92;100382.00;4927259;29;20216;-71
2021/01/01 05:44:13;;;;;;;5.50;2.70;;;;;;;3.58;82.95;100389.13;4928824;29;20205;-72
2021/01/01 05:46:58;;;;;;;5.80;2.87;;;;;;;3.62;83.09;100390.69;4928367;29;20216;-72
2021/01/01 05:49:29;;;;;;;3.70;2.30;;;;;;;3.40;82.92;100365.13;4929084;29;20208;-72
2021/01/01 05:52:07;;;;;;;776.60;363.37;;;;;;;3.54;83.06;100387.53;4927046;29;20718;-72
2021/01/01 05:54:36;;;;;;;13.10;6.13;;;;;;;3.55;83.29;100394.56;4928696;29;20189;-72
2021/01/01 05:57:04;;;;;;;3.93;2.03;;;;;;;3.48;83.21;100395.78;4928357;29;20197;-72
2021/01/01 05:59:35;;;;;;;10.03;5.30;;;;;;;3.45;83.38;100391.47;4930520;29;20836;-71
2021/01/01 06:02:04;;;;;;;4.67;2.90;;;;;;;3.54;83.87;100403.47;4930875;29;20202;-72
2021/01/01 06:04:32;;;;;;;5.40;2.27;;;;;;;3.62;83.55;100403.97;4928545;29;20898;-72
2021/01/01 06:07:05;;;;;;;7.43;3.13;;;;;;;3.63;83.44;100403.91;4930421;29;20588;-71
2021/01/01 06:09:34;;;;;;;7.57;3.47;;;;;;;3.64;83.69;100402.97;4926109;29;20718;-72
2021/01/01 06:12:05;;;;;;;5.27;2.33;;;;;;;3.62;83.38;100396.88;4930431;29;20206;-71
2021/01/01 06:14:37;;;;;;;3.07;2.00;;;;;;;3.72;83.35;100410.63;4929509;29;20686;-72
2021/01/01 06:17:19;;;;;;;4.70;2.20;;;;;;;3.69;83.18;100395.69;4932391;29;20580;-71
2021/01/01 06:19:48;;;;;;;6.97;3.57;;;;;;;3.58;82.99;100378.50;4932263;29;20197;-72
2021/01/01 06:22:16;;;;;;;5.93;2.13;;;;;;;3.52;82.76;100373.47;4928597;29;20211;-72
2021/01/01 06:24:46;;;;;;;4.60;2.47;;;;;;;3.73;82.89;100399.94;4931654;29;20198;-72
2021/01/01 06:27:14;;;;;;;3.10;1.80;;;;;;;3.74;83.18;100409.63;4932860;29;20224;-70
2021/01/01 06:29:47;;;;;;;5.17;2.10;;;;;;;3.72;82.90;100408.81;4930177;29;20293;-71
2021/01/01 06:32:19;;;;;;;3.07;1.73;;;;;;;3.67;82.92;100408.16;4922370;29;20202;-72
2021/01/01 06:34:48;;;;;;;3.50;2.10;;;;;;;3.67;83.08;100400.22;4932455;29;20646;-71
2021/01/01 06:37:37;;;;;;;4.57;2.00;;;;;;;3.73;83.06;100410.53;4932197;29;20202;-72
2021/01/01 06:40:07;;;;;;;2.97;2.00;;;;;;;3.68;83.16;100415.22;4929845;29;20208;-71
2021/01/01 06:42:50;;;;;;;4.13;1.90;;;;;;;3.55;82.66;100394.56;4932024;29;20226;-71
2021/01/01 06:45:41;;;;;;;5.97;1.93;;;;;;;3.69;82.71;100410.75;4930470;29;20202;-71
2021/01/01 06:48:18;;;;;;;5.43;2.20;;;;;;;3.67;83.04;100413.47;4932147;29;20682;-72
2021/01/01 06:50:50;;;;;;;3.87;2.50;;;;;;;3.67;83.09;100423.22;4928241;29;20670;-72
2021/01/01 06:53:18;;;;;;;2.87;1.73;;;;;;;3.16;82.96;100347.63;4927735;29;20709;-72
2021/01/01 06:55:46;;;;;;;3.17;2.00;;;;;;;3.65;82.83;100417.09;4920306;29;20729;-72
2021/01/01 06:58:15;;;;;;;3.70;1.70;;;;;;;3.66;82.70;100426.78;4932648;29;20201;-71
2021/01/01 07:00:56;;;;;;;3.93;2.13;;;;;;;3.66;82.85;100432.09;4931934;29;20565;-72
2021/01/01 07:03:34;;;;;;;3.70;2.23;;;;;;;3.65;82.96;100430.38;4931501;29;20204;-72
2021/01/01 07:06:49;;;;;;;5.50;2.37;;;;;;;3.63;82.90;100427.81;4929655;29;20216;-72
2021/01/01 07:09:16;;;;;;;2.60;2.13;;;;;;;3.62;83.03;100435.84;4907218;29;673333;-71
2021/01/01 07:11:46;;;;;;;4.80;2.13;;;;;;;3.42;82.67;100399.56;4930481;29;20195;-72
2021/01/01 07:14:19;;;;;;;4.70;2.20;;;;;;;3.14;82.68;100352.16;4931166;29;20202;-71
2021/01/01 07:16:48;;;;;;;2.93;2.10;;;;;;;3.58;83.08;100429.78;4928767;29;20209;-72
2021/01/01 07:19:17;;;;;;;1.93;1.50;;;;;;;3.26;83.09;100388.75;4931307;29;20201;-71
2021/01/01 07:21:44;;;;;;;3.60;2.30;;;;;;;3.63;83.08;100432.25;4924349;29;20237;-72
2021/01/01 07:24:12;;;;;;;2.67;1.67;;;;;;;3.61;83.06;100442.06;5036773;23;20319;-70
2021/01/01 07:26:39;;;;;;;2.10;1.73;;;;;;;3.59;83.16;100433.31;4990531;23;20687;-79
2021/01/01 07:29:07;;;;;;;4.53;1.83;;;;;;;3.61;83.06;100440.28;4987793;28;20193;-82
2021/01/01 07:31:35;;;;;;;4.60;1.70;;;;;;;3.62;83.24;100442.00;4975739;28;20251;-79
2021/01/01 07:34:12;;;;;;;2.30;1.73;;;;;;;3.63;83.06;100448.19;4975391;28;20200;-83
2021/01/01 07:36:40;;;;;;;3.43;1.90;;;;;;;3.35;83.02;100409.56;4967033;28;20562;-78
2021/01/01 07:39:08;;;;;;;2.93;1.90;;;;;;;3.14;82.82;100349.50;4965685;28;20197;-82
2021/01/01 07:41:36;;;;;;;5.10;1.90;;;;;;;3.72;83.20;100442.47;4965928;28;20215;-86
2021/01/01 07:44:04;;;;;;;5.20;1.90;;;;;;;3.74;83.16;100437.97;4977280;28;20200;-82
2021/01/01 07:46:32;;;;;;;3.90;2.13;;;;;;;3.18;83.02;100356.38;4978982;28;20197;-88
2021/01/01 07:49:01;;;;;;;2.90;1.93;;;;;;;3.74;83.05;100444.13;4970740;28;20192;-82
2021/01/01 07:51:29;;;;;;;3.27;2.07;;;;;;;3.74;83.13;100441.47;4976968;28;20203;-87
2021/01/01 07:54:14;;;;;;;3.27;2.10;;;;;;;3.73;83.05;100452.16;4989126;28;20258;-79
2021/01/01 07:56:41;;;;;;;4.67;2.20;;;;;;;3.74;83.02;100459.19;4977084;28;20199;-88
2021/01/01 07:59:09;;;;;;;3.00;2.07;;;;;;;3.74;83.10;100448.59;4979825;28;20201;-81
2021/01/01 08:01:36;;;;;;;4.90;2.87;;;;;;;3.74;82.99;100449.44;4979530;28;20199;-81
2021/01/01 08:04:03;;;;;;;5.73;2.97;;;;;;;3.69;83.20;100439.97;4983459;28;20688;-85
2021/01/01 08:06:34;;;;;;;5.33;3.00;;;;;;;3.72;83.13;100459.28;4975383;28;20294;-84
2021/01/01 08:09:05;;;;;;;5.73;2.73;;;;;;;3.61;83.11;100439.41;4974866;28;20200;-84
2021/01/01 08:11:34;;;;;;;5.43;2.30;;;;;;;3.72;83.22;100456.63;4976114;28;20279;-87
2021/01/01 08:14:02;;;;;;;5.43;2.33;;;;;;;3.77;82.94;100467.03;4966059;28;20284;-80
2021/01/01 08:16:29;;;;;;;3.67;2.27;;;;;;;3.84;83.36;100479.09;4973932;28;20247;-77
2021/01/01 08:18:56;;;;;;;6.90;2.23;;;;;;;3.68;83.69;100483.38;4974133;28;20251;-78
2021/01/01 08:21:24;;;;;;;2.90;2.20;;;;;;;3.62;84.55;100484.47;4958685;28;20233;-81
2021/01/01 08:23:59;;;;;;;7.50;2.30;;;;;;;3.53;84.61;100468.09;4971475;28;20194;-81
2021/01/01 08:26:27;;;;;;;3.70;2.50;;;;;;;3.48;85.41;100486.88;4975253;28;20248;-84
2021/01/01 08:28:59;;;;;;;6.03;2.33;;;;;;;3.45;85.56;100494.13;4975726;28;20303;-78
2021/01/01 08:31:27;;;;;;;11.10;2.10;;;;;;;3.33;86.14;100496.34;4983657;28;20191;-77
2021/01/01 08:33:55;;;;;;;2.57;1.93;;;;;;;3.20;86.24;100492.50;4991187;28;20258;-82
2021/01/01 08:36:31;;;;;;;2.60;1.60;;;;;;;3.19;86.46;100504.03;4993464;28;20562;-80
2021/01/01 08:39:09;;;;;;;2.10;1.70;;;;;;;3.02;85.76;100470.22;4989381;28;20238;-88
2021/01/01 08:41:44;;;;;;;3.17;1.80;;;;;;;3.43;85.24;100516.28;4987241;28;20213;-79
2021/01/01 08:44:13;;;;;;;2.00;1.23;;;;;;;3.48;84.88;100507.25;4993350;28;20199;-74
2021/01/01 08:46:40;;;;;;;1.40;1.30;;;;;;;3.43;84.56;100510.09;5011551;28;20220;-77
2021/01/01 08:49:16;;;;;;;3.90;1.00;;;;;;;3.28;84.05;100505.44;4998673;28;20294;-74
2021/01/01 08:51:44;;;;;;;1.77;1.27;;;;;;;3.24;84.81;100511.78;4998952;28;20463;-75
2021/01/01 08:54:22;;;;;;;1.33;1.17;;;;;;;3.24;84.57;100504.69;4994801;28;20200;-80
2021/01/01 08:56:57;;;;;;;5.27;1.50;;;;;;;3.24;84.13;100509.13;5009986;28;20306;-77
2021/01/01 08:59:26;;;;;;;1.77;1.43;;;;;;;2.97;84.32;100455.44;5002657;28;20207;-85
2021/01/01 09:01:54;;;;;;;1.50;1.13;;;;;;;3.46;84.04;100509.13;4990686;28;20733;-83
2021/01/01 09:04:24;;;;;;;3.23;1.80;;;;;;;3.16;83.82;100460.84;4991573;28;20283;-81
2021/01/01 09:06:59;;;;;;;1.30;1.20;;;;;;;3.24;83.90;100472.00;4991977;28;20314;-83
2021/01/01 09:09:30;;;;;;;1.23;1.13;;;;;;;3.45;84.25;100512.69;4990060;28;20210;-93
2021/01/01 09:12:16;;;;;;;1.23;1.17;;;;;;;3.42;84.08;100511.03;4989316;28;20203;-83
2021/01/01 09:14:46;;;;;;;2.60;1.37;;;;;;;3.47;83.87;100516.16;4986843;28;20482;-79
2021/01/01 09:17:13;;;;;;;2.90;1.20;;;;;;;3.50;84.09;100511.56;4986744;28;20203;-79
2021/01/01 09:19:41;;;;;;;2.00;1.80;;;;;;;3.53;83.91;100516.75;4992122;28;20188;-85
2021/01/01 09:22:16;;;;;;;1.57;1.47;;;;;;;3.56;83.95;100515.75;4989866;28;20196;-85
2021/01/01 09:24:45;;;;;;;1.63;1.43;;;;;;;3.28;83.77;100469.13;5006945;28;20262;-80
2021/01/01 09:27:12;;;;;;;2.53;1.40;;;;;;;3.39;83.84;100471.38;4990588;28;20274;-86
2021/01/01 09:29:40;;;;;;;2.57;1.30;;;;;;;2.98;83.99;100394.38;4987541;28;20198;-76
2021/01/01 09:32:13;;;;;;;121.60;61.13;;;;;;;3.35;83.74;100454.69;4969700;28;20208;-83
2021/01/01 09:34:40;;;;;;;16.37;9.13;;;;;;;3.81;84.24;100521.72;4989244;28;20192;-86
2021/01/01 09:37:09;;;;;;;124.97;16.43;;;;;;;3.85;84.37;100512.69;4969738;28;20206;-79
2021/01/01 09:39:38;;;;;;;18.93;7.33;;;;;;;3.90;84.18;100516.00;4992393;28;20196;-80
2021/01/01 09:42:06;;;;;;;3.07;2.20;;;;;;;3.97;84.26;100520.13;4988648;28;20279;-86
2021/01/01 09:44:33;;;;;;;4.23;2.50;;;;;;;3.27;84.01;100403.75;4973962;28;20199;-82
2021/01/01 09:47:01;;;;;;;2.23;1.83;;;;;;;4.04;84.27;100513.63;4987471;28;20611;-82
2021/01/01 09:49:29;;;;;;;7.50;3.67;;;;;;;4.11;83.82;100511.53;4978541;28;20674;-85
2021/01/01 09:51:56;;;;;;;1.70;1.53;;;;;;;3.19;83.75;100381.13;4987171;28;20720;-80
2021/01/01 09:54:36;;;;;;;1.37;1.10;;;;;;;4.13;83.51;100517.66;4985852;28;20327;-79
2021/01/01 09:57:03;;;;;;;3.57;2.30;;;;;;;3.82;83.58;100465.03;4983515;28;20228;-82
2021/01/01 09:59:31;;;;;;;2.67;1.80;;;;;;;4.11;83.67;100513.34;4978266;28;20693;-80
2021/01/01 10:02:00;;;;;;;1.93;1.53;;;;;;;4.04;83.68;100508.31;4986253;28;20658;-85
2021/01/01 10:04:29;;;;;;;3.17;2.13;;;;;;;3.17;83.68;100367.94;4996204;28;20196;-78
2021/01/01 10:06:56;;;;;;;10.07;8.37;;;;;;;3.96;83.86;100493.63;4977880;28;20214;-80
2021/01/01 10:09:24;;;;;;;2.33;1.50;;;;;;;4.06;84.02;100510.91;4995100;28;20219;-83
2021/01/01 10:11:52;;;;;;;1.23;1.00;;;;;;;3.90;83.84;100509.84;4997164;28;20279;-84
2021/01/01 10:14:19;;;;;;;1.80;1.43;;;;;;;3.04;84.02;100361.41;4980339;28;20227;-80
2021/01/01 10:16:48;;;;;;;1.70;1.50;;;;;;;4.03;83.94;100506.59;4992099;28;20299;-79
2021/01/01 10:19:15;;;;;;;2.13;1.50;;;;;;;3.73;84.04;100445.06;4991159;28;20251;-77
2021/01/01 10:21:44;;;;;;;2.03;1.30;;;;;;;4.14;83.74;100507.88;4991887;28;20270;-87
2021/01/01 10:24:12;;;;;;;1.33;1.17;;;;;;;4.16;83.65;100511.34;4993443;28;20198;-76
2021/01/01 10:26:39;;;;;;;7.50;1.40;;;;;;;4.18;83.71;100501.50;4989597;28;20254;-76
2021/01/01 10:29:20;;;;;;;2.40;1.30;;;;;;;4.09;83.90;100486.84;4986792;28;20199;-85
2021/01/01 10:31:48;;;;;;;2.60;1.70;;;;;;;4.14;83.79;100492.81;4964586;28;20597;-80
2021/01/01 10:34:16;;;;;;;1.77;1.57;;;;;;;4.17;83.68;100497.13;4970717;28;20248;-80
2021/01/01 10:36:44;;;;;;;3.03;2.00;;;;;;;3.99;83.89;100470.47;4990926;28;20645;-80
2021/01/01 10:39:32;;;;;;;3.03;1.67;;;;;;;4.14;83.83;100498.13;4985460;28;20215;-84
2021/01/01 10:41:59;;;;;;;5.97;1.70;;;;;;;4.05;84.22;100491.44;4988289;28;20184;-83
2021/01/01 10:44:26;;;;;;;1.97;1.50;;;;;;;4.14;84.00;100503.44;4982022;28;20240;-81
2021/01/01 10:46:54;;;;;;;2.83;1.77;;;;;;;3.39;83.98;100371.38;4994180;28;20219;-76
2021/01/01 10:49:21;;;;;;;2.20;1.83;;;;;;;3.94;84.00;100474.22;4988461;28;20281;-87
2021/01/01 10:51:50;;;;;;;1.63;1.40;;;;;;;4.22;84.22;100495.97;4978352;28;20584;-77
2021/01/01 10:54:17;;;;;;;1.87;1.20;;;;;;;3.94;83.89;100459.16;4971468;28;21020;-79
2021/01/01 10:56:45;;;;;;;1.63;1.40;;;;;;;4.15;83.94;100488.34;4988644;28;20702;-88
2021/01/01 10:59:21;;;;;;;1.90;1.40;;;;;;;4.26;83.95;100508.19;4970496;28;20291;-79
2021/01/01 11:01:53;;;;;;;2.00;1.53;;;;;;;4.18;83.79;100488.22;4990059;28;20247;-78
2021/01/01 11:04:20;;;;;;;1.63;1.50;;;;;;;4.29;84.06;100507.19;4974998;28;20232;-77
2021/01/01 11:06:49;;;;;;;2.27;1.40;;;;;;;4.29;83.92;100504.53;4979973;28;20231;-75
2021/01/01 11:09:16;;;;;;;2.13;1.50;;;;;;;4.21;84.13;100498.69;4988268;28;20747;-79
2021/01/01 11:11:45;;;;;;;1.87;1.43;;;;;;;4.05;84.31;100467.53;4982790;28;20239;-82
2021/01/01 11:14:15;;;;;;;1.33;1.23;;;;;;;4.24;84.07;100502.06;4980652;28;20208;-82
2021/01/01 12:20:57;;;;;;;0.90;0.90;;;;;;;3.35;85.49;100475.03;4983226;28;20552;-79
2021/01/01 12:23:37;;;;;;;1.13;0.80;;;;;;;3.61;85.48;100508.44;4959829;28;20232;-84
2021/01/01 12:26:04;;;;;;;1.30;1.20;;;;;;;3.36;85.13;100452.88;4980060;28;20231;-87
2021/01/01 12:28:35;;;;;;;3.07;2.40;;;;;;;3.18;84.75;100414.75;4986429;28;20223;-81
2021/01/01 12:31:05;;;;;;;15.07;9.77;;;;;;;3.69;84.74;100477.13;4984458;28;20274;-82
2021/01/01 12:33:33;;;;;;;1.60;1.50;;;;;;;3.95;84.78;100497.22;4973122;28;20210;-82
2021/01/01 12:36:00;;;;;;;79.73;55.93;;;;;;;3.94;84.96;100491.03;4984353;28;20215;-88
2021/01/01 12:38:28;;;;;;;3.87;1.73;;;;;;;3.85;85.39;100469.34;4988092;28;20235;-81
2021/01/01 12:40:56;;;;;;;1.47;1.23;;;;;;;4.05;84.73;100494.09;4964648;28;20658;-83
2021/01/01 12:43:25;;;;;;;1.57;1.47;;;;;;;4.14;84.67;100502.56;4986529;28;20287;-80
2021/01/01 12:45:53;;;;;;;2.03;1.10;;;;;;;4.09;84.59;100494.81;4988621;28;20730;-83
2021/01/01 12:48:22;;;;;;;1.07;1.00;;;;;;;4.22;84.21;100503.06;4983027;28;20225;-79